Time;durP1;ratioP1;P1;durP2;ratioP2;P2;SDS_P1;SDS_P2;PMS_P1;PMS_P2;Temp;Humidity;BMP_temperature;BMP_pressure;BME280_temperature;BME280_humidity;BME280_pressure;Samples;Min_cycle;Max_cycle;Signal;HPM_P1;HPM_P2
2022/12/15 00:40:57;;;;;;;11.30;5.00;;;-2.90;99.90;;;;;;5101203;27;20051;-72
2022/12/15 00:43:24;;;;;;;10.73;5.23;;;-2.90;99.90;;;;;;5107636;27;20051;-73
2022/12/15 00:48:34;;;;;;;11.23;5.23;;;-2.90;99.90;;;;;;5111758;27;20099;-72
2022/12/15 00:50:59;;;;;;;10.67;5.50;;;-2.90;99.90;;;;;;5101600;27;20500;-72
2022/12/15 01:21:01;;;;;;;13.27;4.83;;;-2.60;99.90;;;;;;5103664;28;20130;-73
2022/12/15 01:23:27;;;;;;;9.67;4.80;;;-2.50;99.90;;;;;;5115223;27;20411;-73
2022/12/15 01:25:53;;;;;;;9.17;5.47;;;-2.40;99.90;;;;;;5098011;27;20572;-73
2022/12/15 01:28:20;;;;;;;10.40;5.40;;;-2.40;99.90;;;;;;5114995;27;20047;-72
2022/12/15 01:30:46;;;;;;;13.40;5.40;;;-2.30;99.90;;;;;;5106854;27;20098;-73
2022/12/15 01:33:13;;;;;;;9.27;5.03;;;-2.30;99.90;;;;;;5109357;27;20492;-73
2022/12/15 01:35:39;;;;;;;9.63;5.20;;;-2.30;99.90;;;;;;5104034;28;20497;-72
2022/12/15 01:38:04;;;;;;;13.13;6.30;;;-2.30;99.90;;;;;;5104704;27;20126;-72
2022/12/15 01:40:45;;;;;;;11.73;5.97;;;-2.30;99.90;;;;;;5111825;27;20507;-72
2022/12/15 01:43:17;;;;;;;12.83;7.27;;;-2.40;99.90;;;;;;5093511;28;20046;-72
2022/12/15 01:45:48;;;;;;;14.93;7.47;;;-2.40;99.90;;;;;;5093585;28;20118;-72
2022/12/15 01:48:19;;;;;;;15.43;8.10;;;-2.40;99.90;;;;;;5111947;27;20039;-72
2022/12/15 01:50:59;;;;;;;18.40;8.10;;;-2.40;99.90;;;;;;5111219;27;20027;-72
2022/12/15 01:53:26;;;;;;;16.73;8.63;;;-2.50;99.90;;;;;;5114556;27;20035;-72
2022/12/15 01:55:51;;;;;;;19.77;9.40;;;-2.60;99.90;;;;;;5086368;28;20129;-72
2022/12/15 01:58:18;;;;;;;16.97;9.07;;;-2.60;99.90;;;;;;5105171;27;20040;-72
2022/12/15 02:00:44;;;;;;;18.37;9.03;;;-2.70;99.90;;;;;;5109234;27;20035;-72
2022/12/15 02:03:11;;;;;;;17.50;9.73;;;-2.80;99.90;;;;;;5102595;28;20463;-73
2022/12/15 02:05:38;;;;;;;24.43;10.23;;;-2.80;99.90;;;;;;5096601;27;20070;-72
2022/12/15 02:08:04;;;;;;;19.03;10.03;;;-2.80;99.90;;;;;;5083561;28;20054;-71
2022/12/15 02:11:05;;;;;;;19.37;10.40;;;-2.70;99.90;;;;;;5128943;27;20039;-72
2022/12/15 02:13:49;;;;;;;16.63;9.93;;;-2.90;99.90;;;;;;5093860;28;20040;-72
2022/12/15 02:16:27;;;;;;;17.93;9.80;;;-3.00;99.90;;;;;;5108511;27;20039;-72
2022/12/15 02:19:22;;;;;;;15.17;9.47;;;-3.00;99.90;;;;;;5109140;27;20118;-73
2022/12/15 02:22:14;;;;;;;17.83;9.33;;;-3.00;99.90;;;;;;5112009;27;20039;-73
2022/12/15 02:24:48;;;;;;;18.97;8.57;;;-3.10;99.90;;;;;;5062617;28;20419;-73
2022/12/15 02:27:19;;;;;;;16.83;8.10;;;-3.00;99.90;;;;;;5105251;28;20038;-72
2022/12/15 02:30:15;;;;;;;15.20;7.40;;;-2.90;99.90;;;;;;5107015;28;20100;-72
2022/12/15 02:33:07;;;;;;;15.40;7.03;;;-2.90;99.90;;;;;;5105633;28;20077;-72
2022/12/15 02:35:58;;;;;;;10.13;6.50;;;-2.90;99.90;;;;;;5103698;27;20106;-72
2022/12/15 02:38:36;;;;;;;11.77;6.80;;;-2.80;99.90;;;;;;5106691;28;20050;-72
2022/12/15 02:41:05;;;;;;;10.93;6.27;;;-2.90;99.90;;;;;;5108003;28;20035;-73
2022/12/15 02:43:35;;;;;;;11.63;5.90;;;-2.90;99.90;;;;;;5105112;28;20043;-72
2022/12/15 02:46:30;;;;;;;11.67;5.50;;;-2.80;99.90;;;;;;5098519;28;20047;-72
2022/12/15 02:49:21;;;;;;;11.83;5.70;;;-2.80;99.90;;;;;;5076416;28;20114;-72
2022/12/15 02:52:04;;;;;;;11.37;5.40;;;-2.70;99.90;;;;;;5101908;28;20108;-72
2022/12/15 02:54:52;;;;;;;11.13;5.55;;;-2.80;99.90;;;;;;5099571;28;20043;-72
2022/12/15 02:57:29;;;;;;;12.80;5.63;;;-2.80;99.90;;;;;;5109451;28;20092;-72
2022/12/15 03:00:01;;;;;;;9.10;4.87;;;-2.80;99.90;;;;;;5108237;28;20480;-72
2022/12/15 03:02:30;;;;;;;7.30;4.53;;;-2.80;99.90;;;;;;5096327;28;20054;-72
2022/12/15 03:04:57;;;;;;;10.63;5.13;;;-2.80;99.90;;;;;;5103327;28;20609;-72
2022/12/15 03:07:26;;;;;;;11.27;5.10;;;-2.80;99.90;;;;;;5113098;28;20416;-72
2022/12/15 03:09:56;;;;;;;10.70;4.90;;;-2.80;99.90;;;;;;5109121;28;20039;-72
2022/12/15 03:12:22;;;;;;;9.67;4.30;;;-2.80;99.90;;;;;;5110594;28;20035;-72
2022/12/15 03:14:48;;;;;;;10.30;4.03;;;-2.90;99.90;;;;;;5107890;28;20039;-72
2022/12/15 03:17:13;;;;;;;5.83;3.60;;;-2.90;99.90;;;;;;5099024;28;20242;-73
2022/12/15 03:19:39;;;;;;;7.13;3.60;;;-2.80;99.90;;;;;;5112906;28;20061;-72
2022/12/15 03:22:04;;;;;;;7.50;3.30;;;-2.70;99.90;;;;;;5123832;28;20111;-72
2022/12/15 03:24:30;;;;;;;7.50;3.50;;;-2.70;99.90;;;;;;5093483;28;20047;-73
2022/12/15 03:26:55;;;;;;;8.17;3.30;;;-2.70;99.90;;;;;;5092001;28;20308;-72
2022/12/15 03:29:21;;;;;;;7.10;3.73;;;-2.70;99.90;;;;;;5099657;28;20043;-73
2022/12/15 03:31:47;;;;;;;5.80;3.20;;;-2.70;99.90;;;;;;5100459;28;20404;-73
2022/12/15 03:34:13;;;;;;;5.60;3.17;;;-2.70;99.90;;;;;;5122173;28;20039;-72
2022/12/15 03:36:39;;;;;;;6.43;3.07;;;-2.60;99.90;;;;;;5101021;28;20035;-72
2022/12/15 03:39:05;;;;;;;8.47;2.97;;;-2.60;99.90;;;;;;5093105;28;20114;-72
2022/12/15 03:41:31;;;;;;;8.63;3.40;;;-2.50;99.90;;;;;;5100456;28;20118;-72
2022/12/15 03:43:56;;;;;;;5.47;2.77;;;-2.60;99.90;;;;;;5112742;27;20114;-72
2022/12/15 03:46:22;;;;;;;7.17;2.90;;;-2.70;99.90;;;;;;5097716;27;20046;-72
2022/12/15 03:48:47;;;;;;;6.00;2.70;;;-2.70;99.90;;;;;;5110417;27;20129;-72
2022/12/15 03:51:13;;;;;;;5.00;2.50;;;-2.70;99.90;;;;;;5096510;28;20047;-72
2022/12/15 03:53:39;;;;;;;7.17;2.80;;;-2.70;99.90;;;;;;5109203;27;20310;-72
2022/12/15 03:56:05;;;;;;;3.63;2.30;;;-2.70;99.90;;;;;;5108188;28;20040;-72
2022/12/15 03:58:31;;;;;;;5.43;2.47;;;-2.80;99.90;;;;;;5112632;27;20087;-72
2022/12/15 04:00:56;;;;;;;6.30;2.67;;;-2.80;99.90;;;;;;5112407;27;20086;-72
2022/12/15 04:03:23;;;;;;;4.30;2.40;;;-2.70;99.90;;;;;;5107881;27;20523;-72
2022/12/15 04:05:49;;;;;;;6.33;2.60;;;-2.70;99.90;;;;;;5135022;27;20043;-72
2022/12/15 04:08:14;;;;;;;6.77;2.23;;;-2.70;99.90;;;;;;5107686;28;20058;-73
2022/12/15 04:10:40;;;;;;;8.03;2.50;;;-2.80;99.90;;;;;;5100707;27;20109;-72
2022/12/15 04:13:07;;;;;;;5.00;2.33;;;-2.80;99.90;;;;;;5107251;27;20043;-72
2022/12/15 04:15:35;;;;;;;5.33;2.90;;;-2.80;99.90;;;;;;5114196;27;20059;-72
2022/12/15 04:18:02;;;;;;;6.03;3.10;;;-2.70;99.90;;;;;;5104085;27;20035;-72
2022/12/15 04:20:28;;;;;;;8.10;2.90;;;-2.70;99.90;;;;;;5104756;28;20052;-72
2022/12/15 04:22:55;;;;;;;5.20;2.87;;;-2.70;99.90;;;;;;5095463;28;20032;-72
2022/12/15 05:34:15;;;;;;;;;;;-2.70;99.90;;;;;;5103618;27;20401;-72
2022/12/15 05:36:40;;;;;;;18.37;9.03;;;-1.90;99.90;;;;;;5110183;28;19956;-72
2022/12/15 05:39:06;;;;;;;15.87;9.43;;;-2.70;99.90;;;;;;5102789;27;20524;-72
2022/12/15 05:41:31;;;;;;;16.83;8.97;;;-2.60;99.90;;;;;;5128151;27;20046;-72
2022/12/15 05:43:57;;;;;;;20.50;9.70;;;-2.60;99.90;;;;;;5106606;28;20036;-72
2022/12/15 05:46:22;;;;;;;19.50;9.50;;;-2.60;99.90;;;;;;5109920;27;20039;-72
2022/12/15 05:48:48;;;;;;;23.27;9.43;;;-2.60;99.90;;;;;;5123486;27;20293;-72
2022/12/15 05:51:14;;;;;;;14.73;9.03;;;-2.60;99.90;;;;;;5094960;28;20054;-72
2022/12/15 05:53:41;;;;;;;17.93;10.17;;;-2.50;99.90;;;;;;5100152;27;20848;-71
2022/12/15 05:56:09;;;;;;;19.27;10.27;;;-2.50;99.90;;;;;;5114216;27;20031;-72
2022/12/15 05:58:36;;;;;;;18.77;10.40;;;-2.50;99.90;;;;;;5104267;27;20490;-72
2022/12/15 06:01:07;;;;;;;26.30;11.53;;;-2.50;99.90;;;;;;5114117;27;20404;-72
2022/12/15 06:03:33;;;;;;;21.07;11.00;;;-2.40;99.90;;;;;;5114864;27;20054;-72
2022/12/15 06:05:59;;;;;;;18.43;10.73;;;-2.40;99.90;;;;;;5096461;27;20042;-72
2022/12/15 06:08:30;;;;;;;21.70;12.73;;;-2.30;99.90;;;;;;5110737;27;20035;-72
2022/12/15 06:10:56;;;;;;;21.20;11.17;;;-2.30;99.90;;;;;;5109318;28;20031;-72
2022/12/15 06:13:25;;;;;;;17.40;11.10;;;-2.30;99.90;;;;;;5105564;27;20042;-72
2022/12/15 06:16:02;;;;;;;16.63;10.07;;;-2.30;99.90;;;;;;5109867;27;20053;-72
2022/12/15 06:18:30;;;;;;;19.77;10.50;;;-2.30;99.90;;;;;;5103219;28;20036;-72
2022/12/15 06:20:57;;;;;;;18.37;9.73;;;-2.30;99.90;;;;;;5092687;28;20423;-72
2022/12/15 06:23:23;;;;;;;15.27;9.47;;;-2.30;99.90;;;;;;5093214;28;20119;-72
2022/12/15 06:25:48;;;;;;;18.13;9.17;;;-2.20;99.90;;;;;;5103596;27;20519;-72
2022/12/15 06:28:15;;;;;;;15.80;9.37;;;-2.20;99.90;;;;;;5131126;27;20075;-72
2022/12/15 06:30:41;;;;;;;15.43;9.33;;;-2.20;99.90;;;;;;5102926;28;20573;-71
2022/12/15 06:33:06;;;;;;;12.33;7.87;;;-2.20;99.90;;;;;;5104467;28;20074;-72
2022/12/15 06:35:36;;;;;;;14.27;8.03;;;-2.20;99.90;;;;;;5107655;27;20079;-72
2022/12/15 06:38:01;;;;;;;12.17;7.50;;;-2.20;99.90;;;;;;5112298;27;20065;-72
2022/12/15 06:40:27;;;;;;;15.83;8.20;;;-2.20;99.90;;;;;;5093079;28;20119;-71
2022/12/15 06:42:52;;;;;;;16.67;8.23;;;-2.10;99.90;;;;;;5101052;28;20031;-72
2022/12/15 06:45:18;;;;;;;14.13;8.10;;;-2.00;99.90;;;;;;5101747;28;20047;-72
2022/12/15 06:47:44;;;;;;;14.60;8.37;;;-2.10;99.90;;;;;;5106431;27;20150;-72
2022/12/15 06:50:09;;;;;;;20.10;9.53;;;-2.00;99.90;;;;;;5104659;28;20039;-72
2022/12/15 06:52:35;;;;;;;15.77;8.50;;;-2.10;99.90;;;;;;5112060;28;20046;-71
2022/12/15 06:55:00;;;;;;;14.83;8.60;;;-2.00;99.90;;;;;;5118155;28;20028;-72
2022/12/15 06:57:26;;;;;;;13.57;8.83;;;-2.10;99.90;;;;;;5092752;28;20050;-72
2022/12/15 06:59:51;;;;;;;17.93;9.03;;;-2.10;99.90;;;;;;5090871;28;20075;-72
2022/12/15 07:02:17;;;;;;;17.00;9.00;;;-2.10;99.90;;;;;;5092001;28;20102;-72
2022/12/15 07:04:42;;;;;;;13.93;8.37;;;-2.10;99.90;;;;;;5103185;28;20039;-72
2022/12/15 07:07:09;;;;;;;14.37;8.37;;;-2.00;99.90;;;;;;5092653;28;20405;-72
2022/12/15 07:09:35;;;;;;;15.30;8.47;;;-2.10;99.90;;;;;;5109251;28;20172;-72
2022/12/15 07:12:01;;;;;;;14.83;8.40;;;-2.00;99.90;;;;;;5085268;28;20031;-71
2022/12/15 07:14:26;;;;;;;14.03;7.87;;;-2.00;99.90;;;;;;5105754;28;20077;-72
2022/12/15 07:16:52;;;;;;;13.97;8.23;;;-2.00;99.90;;;;;;5102845;28;20063;-72
2022/12/15 07:19:17;;;;;;;20.60;8.40;;;-2.00;99.90;;;;;;5105214;27;20114;-72
2022/12/15 07:21:43;;;;;;;12.63;8.30;;;-2.00;99.90;;;;;;5100686;28;20048;-72
2022/12/15 07:24:11;;;;;;;12.90;8.03;;;-2.10;99.90;;;;;;5101758;27;20041;-72
2022/12/15 07:26:37;;;;;;;13.93;8.47;;;-2.00;99.90;;;;;;5117484;27;20047;-72
2022/12/15 07:29:02;;;;;;;13.67;7.37;;;-2.10;99.90;;;;;;5101567;28;20089;-72
2022/12/15 07:31:29;;;;;;;16.07;8.20;;;-2.00;99.90;;;;;;5107991;27;20039;-72
2022/12/15 07:33:57;;;;;;;19.47;7.97;;;-2.00;99.90;;;;;;5089312;27;20042;-72
2022/12/15 07:36:22;;;;;;;14.20;7.77;;;-2.10;99.90;;;;;;5106801;27;20035;-72
2022/12/15 07:38:48;;;;;;;12.93;7.00;;;-2.10;99.90;;;;;;5112929;28;20046;-72
2022/12/15 07:41:14;;;;;;;16.47;8.20;;;-2.10;99.90;;;;;;5103238;27;20070;-72
2022/12/15 07:43:40;;;;;;;16.23;7.40;;;-2.10;99.90;;;;;;5115433;28;20071;-71
2022/12/15 07:46:05;;;;;;;15.17;8.27;;;-2.10;99.90;;;;;;5114701;27;20046;-72
2022/12/15 07:48:31;;;;;;;12.53;7.20;;;-2.10;99.90;;;;;;5112283;27;20050;-72
2022/12/15 07:50:58;;;;;;;14.93;8.27;;;-2.00;99.90;;;;;;5099758;27;20047;-72
2022/12/15 07:53:27;;;;;;;17.20;8.60;;;-2.00;99.90;;;;;;5115656;27;20403;-72
2022/12/15 07:55:57;;;;;;;14.97;8.00;;;-2.00;99.90;;;;;;5096287;28;20114;-72
2022/12/15 07:58:25;;;;;;;13.97;8.60;;;-1.90;99.90;;;;;;5096083;28;20078;-72
2022/12/15 08:00:50;;;;;;;16.10;8.60;;;-2.00;99.90;;;;;;5096661;28;20523;-72
2022/12/15 08:03:16;;;;;;;14.27;7.87;;;-2.00;99.90;;;;;;5114616;28;20048;-72
2022/12/15 08:05:42;;;;;;;15.57;8.80;;;-1.90;99.90;;;;;;5096454;28;20050;-72
2022/12/15 08:08:07;;;;;;;15.43;8.10;;;-1.90;99.90;;;;;;5114110;27;20039;-72
2022/12/15 08:10:33;;;;;;;14.40;8.17;;;-1.90;99.90;;;;;;5095287;28;20108;-72
2022/12/15 08:12:58;;;;;;;14.50;8.77;;;-1.90;99.90;;;;;;5112649;28;20397;-73
2022/12/15 08:15:24;;;;;;;15.77;8.23;;;-1.80;99.90;;;;;;5111508;27;20043;-72
2022/12/15 08:17:50;;;;;;;16.03;8.10;;;-1.80;99.90;;;;;;5115652;27;20121;-72
2022/12/15 08:20:15;;;;;;;18.80;9.53;;;-1.80;99.90;;;;;;5107734;27;20047;-72
2022/12/15 08:22:41;;;;;;;16.93;8.33;;;-1.70;99.90;;;;;;5103767;27;20087;-72
2022/12/15 08:25:07;;;;;;;14.30;8.43;;;-1.80;99.90;;;;;;5110191;28;20047;-72
2022/12/15 08:27:32;;;;;;;12.50;7.97;;;-1.70;99.90;;;;;;5096072;28;20054;-71
2022/12/15 08:29:58;;;;;;;19.57;8.30;;;-1.70;99.90;;;;;;5095828;28;20034;-72
2022/12/15 08:32:23;;;;;;;11.83;7.40;;;-1.70;99.90;;;;;;5105939;27;20092;-72
2022/12/15 08:34:49;;;;;;;14.03;8.67;;;-1.60;99.90;;;;;;5094580;28;20028;-72
2022/12/15 08:37:14;;;;;;;16.50;9.17;;;-1.60;99.90;;;;;;5094525;27;20035;-72
2022/12/15 08:39:41;;;;;;;15.63;8.40;;;-1.50;99.90;;;;;;5101905;27;20043;-72
2022/12/15 08:42:07;;;;;;;15.33;8.10;;;-1.50;99.90;;;;;;5108558;27;20046;-72
2022/12/15 08:44:32;;;;;;;11.30;7.50;;;-1.40;99.90;;;;;;5110579;27;20396;-72
2022/12/15 08:46:58;;;;;;;16.80;8.50;;;-1.40;99.90;;;;;;5099405;27;20032;-72
2022/12/15 08:49:24;;;;;;;12.60;7.57;;;-1.40;99.90;;;;;;5110876;27;20047;-72
2022/12/15 08:51:50;;;;;;;15.20;7.77;;;-1.40;99.90;;;;;;5113711;27;20569;-72
2022/12/15 08:54:15;;;;;;;18.03;8.60;;;-1.40;99.90;;;;;;5094189;27;20036;-72
2022/12/15 08:56:41;;;;;;;15.43;9.60;;;-1.40;99.90;;;;;;5110085;27;20031;-73
2022/12/15 08:59:08;;;;;;;16.37;8.17;;;-1.30;99.90;;;;;;5109377;27;20062;-72
2022/12/15 09:01:38;;;;;;;15.77;9.13;;;-1.20;99.90;;;;;;5103071;28;20031;-73
2022/12/15 09:04:04;;;;;;;15.80;9.17;;;-1.20;99.90;;;;;;5097323;28;20055;-72
2022/12/15 09:06:33;;;;;;;14.57;7.93;;;-1.10;99.90;;;;;;5106982;27;20035;-72
2022/12/15 09:09:01;;;;;;;13.90;8.50;;;-1.00;99.90;;;;;;5106706;27;20039;-73
2022/12/15 09:11:29;;;;;;;17.17;9.33;;;-0.90;99.90;;;;;;5102913;27;20108;-73
2022/12/15 09:13:55;;;;;;;15.87;8.23;;;-0.80;99.90;;;;;;5084080;28;20032;-73
2022/12/15 09:16:21;;;;;;;16.07;8.83;;;-0.80;99.90;;;;;;5108780;27;20027;-74
2022/12/15 09:18:53;;;;;;;12.80;8.60;;;-0.80;99.90;;;;;;5120080;27;20381;-74
2022/12/15 09:21:21;;;;;;;16.87;9.50;;;-0.80;99.90;;;;;;5105576;27;20031;-73
2022/12/15 09:23:50;;;;;;;17.30;8.97;;;-0.80;99.90;;;;;;5098782;28;20032;-73
2022/12/15 09:26:17;;;;;;;19.80;9.20;;;-0.90;99.90;;;;;;5112601;27;20040;-73
2022/12/15 09:28:43;;;;;;;14.77;8.30;;;-0.80;99.90;;;;;;5110559;27;20042;-73
2022/12/15 09:31:20;;;;;;;14.37;8.80;;;-0.80;99.90;;;;;;5132845;27;20039;-73
2022/12/15 09:33:47;;;;;;;15.20;8.73;;;-0.80;99.90;;;;;;5086168;27;20031;-72
2022/12/15 09:36:12;;;;;;;12.80;7.93;;;-0.80;99.90;;;;;;5105685;27;20028;-74
2022/12/15 09:38:39;;;;;;;12.60;7.87;;;-0.80;99.90;;;;;;5105660;27;20096;-73
2022/12/15 09:41:14;;;;;;;15.83;8.57;;;-0.80;99.90;;;;;;5103540;28;20126;-74
2022/12/15 09:43:59;;;;;;;15.87;8.37;;;-0.80;99.90;;;;;;5099622;27;20039;-74
2022/12/15 09:47:04;;;;;;;15.70;8.80;;;-0.80;99.90;;;;;;5121757;27;20069;-73
2022/12/15 09:49:42;;;;;;;15.37;9.77;;;-0.70;99.90;;;;;;5105244;27;20055;-75
2022/12/15 09:52:13;;;;;;;15.27;8.60;;;-0.60;99.90;;;;;;5101218;27;20043;-75
2022/12/15 09:54:41;;;;;;;16.67;8.63;;;-0.50;99.90;;;;;;5113044;27;20035;-74
2022/12/15 09:57:17;;;;;;;13.23;8.60;;;-0.50;99.90;;;;;;5105774;27;20036;-76
2022/12/15 09:59:56;;;;;;;17.47;9.20;;;-0.40;99.90;;;;;;5114341;27;20035;-77
2022/12/15 10:02:31;;;;;;;16.43;8.73;;;-0.40;99.90;;;;;;5094761;27;20046;-76
2022/12/15 10:05:11;;;;;;;16.87;9.07;;;-0.30;99.90;;;;;;5108818;28;20062;-77
2022/12/15 10:07:43;;;;;;;16.07;8.50;;;-0.30;99.90;;;;;;5094671;28;20031;-76
2022/12/15 10:10:28;;;;;;;14.90;8.03;;;-0.20;99.90;;;;;;5096593;28;20419;-76
2022/12/15 10:12:57;;;;;;;14.83;9.07;;;-0.20;99.90;;;;;;5094133;28;20085;-75
2022/12/15 10:15:26;;;;;;;13.90;8.33;;;-0.10;99.90;;;;;;5093668;28;20036;-76
2022/12/15 10:18:22;;;;;;;17.43;8.80;;;-0.10;99.90;;;;;;5093664;28;20039;-76
2022/12/15 10:20:51;;;;;;;14.53;8.63;;;0.00;99.90;;;;;;5093880;28;20141;-76
2022/12/15 10:23:17;;;;;;;21.70;8.27;;;0.00;99.90;;;;;;5094448;28;20051;-77
2022/12/15 10:25:49;;;;;;;15.30;8.87;;;0.10;99.90;;;;;;5093691;28;20501;-77
2022/12/15 10:28:14;;;;;;;15.53;8.83;;;0.10;99.90;;;;;;5093782;28;20036;-77
2022/12/15 10:31:03;;;;;;;13.60;7.90;;;0.20;99.90;;;;;;5077048;28;20093;-76
2022/12/15 10:33:38;;;;;;;12.97;8.30;;;0.30;99.90;;;;;;5093933;28;20036;-77
2022/12/15 10:36:13;;;;;;;17.30;8.43;;;0.40;99.90;;;;;;5093929;28;20404;-75
2022/12/15 10:38:44;;;;;;;15.57;8.63;;;0.40;99.90;;;;;;5121009;27;20062;-77
2022/12/15 10:41:25;;;;;;;15.23;8.87;;;0.40;99.90;;;;;;5094260;28;20100;-76
2022/12/15 10:43:52;;;;;;;20.73;9.53;;;0.50;99.90;;;;;;5105518;28;20042;-77
2022/12/15 10:46:22;;;;;;;19.07;9.70;;;0.60;99.90;;;;;;5109154;28;20044;-78
2022/12/15 10:48:50;;;;;;;15.80;8.97;;;0.60;99.90;;;;;;5078255;28;20040;-78
2022/12/15 10:51:19;;;;;;;14.43;8.70;;;0.60;99.90;;;;;;5097412;28;20046;-79
2022/12/15 10:53:51;;;;;;;12.30;8.33;;;0.60;99.90;;;;;;5109597;28;20035;-79
2022/12/15 10:56:21;;;;;;;13.07;8.20;;;0.70;99.90;;;;;;5118587;27;20072;-79
2022/12/15 10:58:50;;;;;;;13.13;7.87;;;0.70;99.90;;;;;;5092597;27;20031;-80
2022/12/15 11:01:31;;;;;;;17.30;8.73;;;0.80;99.90;;;;;;5120229;27;20047;-80
2022/12/15 11:03:57;;;;;;;14.43;7.53;;;0.90;99.90;;;;;;5084234;28;20060;-80
2022/12/15 11:06:31;;;;;;;18.03;7.97;;;1.00;99.90;;;;;;5101024;28;20043;-80
2022/12/15 11:09:08;;;;;;;12.40;6.97;;;1.70;99.90;;;;;;5108477;27;20126;-80
2022/12/15 11:14:47;;;;;;;12.60;7.73;;;1.10;99.90;;;;;;5109297;27;20114;-80
2022/12/15 11:17:16;;;;;;;12.23;7.20;;;1.20;99.90;;;;;;5106495;27;20032;-80
2022/12/15 11:19:55;;;;;;;16.20;7.77;;;1.30;99.90;;;;;;5107894;28;20412;-78
2022/12/15 11:22:34;;;;;;;13.83;7.27;;;1.30;99.90;;;;;;5107580;27;20238;-77
2022/12/15 11:25:26;;;;;;;12.30;7.13;;;1.30;99.90;;;;;;5104282;27;20488;-77
2022/12/15 11:27:55;;;;;;;13.87;7.13;;;1.40;99.90;;;;;;5037780;27;20080;-76
2022/12/15 11:30:25;;;;;;;12.53;6.90;;;1.50;99.90;;;;;;5099827;27;20079;-77
2022/12/15 11:33:01;;;;;;;15.60;7.20;;;1.50;99.90;;;;;;5109247;27;20102;-77
2022/12/15 11:35:58;;;;;;;13.23;6.60;;;1.60;99.90;;;;;;5114561;27;20061;-77
2022/12/15 11:38:59;;;;;;;13.90;6.60;;;1.60;99.90;;;;;;5099092;28;20537;-78
2022/12/15 11:41:49;;;;;;;12.43;6.57;;;1.60;99.90;;;;;;5097958;28;20395;-78
2022/12/15 11:44:20;;;;;;;9.07;6.13;;;1.70;99.90;;;;;;5094083;28;20446;-77
2022/12/15 11:47:16;;;;;;;12.60;6.90;;;1.90;99.90;;;;;;5109020;27;20047;-77
2022/12/15 11:50:08;;;;;;;10.80;6.60;;;1.90;99.90;;;;;;5106501;27;20101;-78
2022/12/15 11:53:07;;;;;;;10.43;6.40;;;2.00;99.90;;;;;;5102793;28;20035;-78
2022/12/15 11:55:49;;;;;;;15.23;6.50;;;2.10;99.90;;;;;;5099529;27;20048;-76
2022/12/15 11:58:23;;;;;;;13.07;7.33;;;2.10;99.90;;;;;;5109386;27;20033;-77
2022/12/15 12:01:15;;;;;;;11.35;7.07;;;2.10;99.90;;;;;;5111397;27;20046;-78
2022/12/15 12:03:53;;;;;;;11.00;6.23;;;2.20;99.90;;;;;;5080250;28;20050;-76
2022/12/15 12:06:57;;;;;;;10.43;6.13;;;2.30;99.90;;;;;;5096839;28;20083;-75
2022/12/15 12:09:34;;;;;;;12.45;6.05;;;2.30;99.90;;;;;;5094278;28;20077;-74
2022/12/15 12:12:25;;;;;;;13.80;5.83;;;2.40;99.90;;;;;;5101671;28;20508;-74
2022/12/15 12:15:10;;;;;;;9.70;5.73;;;2.50;99.90;;;;;;5089206;28;20401;-73
2022/12/15 12:17:51;;;;;;;15.73;6.37;;;2.60;99.90;;;;;;5121627;28;20154;-74
2022/12/15 12:20:25;;;;;;;10.47;5.80;;;2.60;99.90;;;;;;5102883;28;20430;-74
2022/12/15 12:23:04;;;;;;;14.33;6.23;;;2.80;99.90;;;;;;5103620;28;20044;-75
2022/12/15 12:25:44;;;;;;;13.00;5.93;;;2.80;99.90;;;;;;5103522;28;20120;-76
2022/12/15 12:28:19;;;;;;;11.07;5.90;;;2.90;99.90;;;;;;5099972;28;20051;-76
2022/12/15 12:30:46;;;;;;;10.70;6.37;;;3.50;99.90;;;;;;5099031;28;20043;-77
2022/12/15 12:33:31;;;;;;;12.75;6.40;;;3.10;99.90;;;;;;5099909;28;20046;-77
2022/12/15 12:36:03;;;;;;;12.32;5.57;;;3.20;99.90;;;;;;5099288;28;20046;-78
2022/12/15 12:38:36;;;;;;;10.45;5.75;;;3.30;99.90;;;;;;5102209;28;20123;-78
2022/12/15 12:41:29;;;;;;;12.85;5.65;;;3.40;99.90;;;;;;5101249;28;20079;-78
2022/12/15 12:43:59;;;;;;;11.63;5.53;;;3.60;99.90;;;;;;5102616;28;20107;-77
2022/12/15 12:46:38;;;;;;;13.85;5.93;;;3.80;99.90;;;;;;5103044;28;20043;-76
2022/12/15 12:49:05;;;;;;;7.68;5.20;;;3.90;99.90;;;;;;5099755;27;20070;-78
2022/12/15 12:51:37;;;;;;;9.05;5.47;;;4.10;99.90;;;;;;5148224;27;20111;-75
2022/12/15 12:54:38;;;;;;;17.15;5.93;;;4.30;99.90;;;;;;5112753;27;20432;-78
2022/12/15 12:57:10;;;;;;;10.38;5.78;;;4.50;99.90;;;;;;5111053;27;20051;-74
2022/12/15 12:59:56;;;;;;;14.02;6.05;;;4.70;99.90;;;;;;5117467;27;20046;-75
2022/12/15 13:02:44;;;;;;;13.40;5.75;;;4.90;99.90;;;;;;5117793;27;20378;-73
2022/12/15 13:05:24;;;;;;;14.25;5.78;;;4.90;99.90;;;;;;5095217;28;20046;-76
2022/12/15 13:08:06;;;;;;;14.65;5.97;;;5.20;99.90;;;;;;5100445;27;20035;-76
2022/12/15 13:10:40;;;;;;;12.90;5.90;;;4.90;99.90;;;;;;5109661;27;20046;-76
2022/12/15 13:13:28;;;;;;;8.85;5.45;;;4.90;99.90;;;;;;5100561;27;20424;-77
2022/12/15 13:16:05;;;;;;;10.95;5.40;;;4.80;99.90;;;;;;5108620;27;20039;-76
2022/12/15 13:18:55;;;;;;;14.25;5.32;;;4.80;99.90;;;;;;5113098;27;20055;-76
2022/12/15 13:21:42;;;;;;;12.18;5.25;;;4.90;99.90;;;;;;5111007;27;20039;-75
2022/12/15 13:24:30;;;;;;;11.05;5.43;;;5.00;99.90;;;;;;5111612;27;20042;-76
2022/12/15 13:27:24;;;;;;;12.18;5.00;;;4.90;99.90;;;;;;5106898;27;20043;-75
2022/12/15 13:30:14;;;;;;;10.60;5.20;;;4.90;99.90;;;;;;5093574;27;20063;-75
2022/12/15 13:32:51;;;;;;;13.95;4.85;;;4.70;99.90;;;;;;5125033;27;20554;-75
2022/12/15 13:35:25;;;;;;;9.25;4.57;;;4.30;99.90;;;;;;5098918;27;20069;-75
2022/12/15 13:38:03;;;;;;;10.82;4.63;;;4.00;99.90;;;;;;5099670;27;20501;-76
2022/12/15 13:40:34;;;;;;;10.52;3.85;;;3.80;99.90;;;;;;5087599;27;20080;-75
2022/12/15 13:43:03;;;;;;;10.15;4.43;;;3.60;99.90;;;;;;5107412;27;20035;-76
2022/12/15 13:45:35;;;;;;;11.65;4.68;;;3.50;99.90;;;;;;5111568;27;20039;-76
2022/12/15 13:48:11;;;;;;;8.02;4.20;;;3.30;99.90;;;;;;5106076;27;20047;-77
2022/12/15 13:50:45;;;;;;;9.20;4.22;;;3.10;99.90;;;;;;5104905;27;20503;-78
2022/12/15 13:53:17;;;;;;;12.57;5.00;;;3.10;99.90;;;;;;5112441;27;20045;-78
2022/12/15 13:56:21;;;;;;;11.98;5.35;;;3.00;99.90;;;;;;5109074;27;20027;-78
2022/12/15 13:58:55;;;;;;;8.70;4.90;;;3.00;99.90;;;;;;5108701;27;20400;-78
2022/12/15 14:01:28;;;;;;;10.43;4.63;;;2.90;99.90;;;;;;5095191;27;20038;-78
2022/12/15 14:04:14;;;;;;;9.97;4.90;;;2.90;99.90;;;;;;5118778;27;20127;-79
2022/12/15 14:06:50;;;;;;;11.30;4.70;;;2.80;99.90;;;;;;5113889;27;20115;-76
2022/12/15 14:09:31;;;;;;;11.68;5.57;;;2.90;99.90;;;;;;5116262;27;20039;-79
2022/12/15 14:11:57;;;;;;;13.00;5.22;;;2.80;99.90;;;;;;5120934;27;20158;-80
2022/12/15 14:14:28;;;;;;;15.20;5.80;;;2.80;99.90;;;;;;5091901;27;20038;-79
2022/12/15 14:16:58;;;;;;;12.20;6.57;;;2.80;99.90;;;;;;5126798;27;20083;-80
2022/12/15 14:19:24;;;;;;;10.57;5.82;;;2.80;99.90;;;;;;5122533;27;20042;-81
2022/12/15 14:21:56;;;;;;;12.60;5.97;;;2.70;99.90;;;;;;5121369;27;20067;-83
2022/12/15 14:24:31;;;;;;;14.63;6.30;;;2.70;99.90;;;;;;5103732;27;20400;-84
2022/12/15 14:26:58;;;;;;;10.68;6.00;;;2.70;99.90;;;;;;5111305;28;20035;-82
2022/12/15 14:29:24;;;;;;;14.07;6.10;;;2.60;99.90;;;;;;5097115;28;20043;-82
2022/12/15 14:31:56;;;;;;;17.30;6.32;;;2.60;99.90;;;;;;5098545;28;20039;-83
2022/12/15 14:34:24;;;;;;;13.00;6.40;;;2.60;99.90;;;;;;5096599;28;20036;-83
2022/12/15 14:36:51;;;;;;;11.45;5.97;;;2.60;99.90;;;;;;5095613;28;20043;-83
2022/12/15 14:39:30;;;;;;;10.90;6.22;;;2.60;99.90;;;;;;5096306;28;20405;-83
2022/12/15 14:41:57;;;;;;;15.13;6.53;;;2.50;99.90;;;;;;5080348;28;20043;-83
2022/12/15 14:44:23;;;;;;;15.85;6.55;;;2.50;99.90;;;;;;5080240;28;20070;-83
2022/12/15 14:46:49;;;;;;;11.45;5.90;;;2.50;99.90;;;;;;5096937;28;20047;-83
2022/12/15 14:49:29;;;;;;;14.55;6.13;;;2.50;99.90;;;;;;5096458;28;20626;-82
2022/12/15 14:52:01;;;;;;;10.68;5.30;;;2.50;99.90;;;;;;5098350;28;20048;-82
2022/12/15 14:54:36;;;;;;;12.02;6.00;;;2.50;99.90;;;;;;5080376;28;20114;-83
2022/12/15 14:57:23;;;;;;;9.13;5.20;;;2.40;99.90;;;;;;5081287;28;20046;-83
2022/12/15 14:59:50;;;;;;;13.73;5.97;;;2.40;99.90;;;;;;5080026;28;20036;-83
2022/12/15 15:02:29;;;;;;;12.02;6.07;;;2.40;99.90;;;;;;5097293;28;20055;-82
2022/12/15 15:05:22;;;;;;;10.52;5.32;;;2.40;99.90;;;;;;5082849;28;20353;-82
2022/12/15 15:07:55;;;;;;;10.25;5.93;;;2.30;99.90;;;;;;5097520;28;20043;-82
2022/12/15 15:10:26;;;;;;;13.60;5.93;;;2.30;99.90;;;;;;5097323;28;20071;-82
2022/12/15 15:12:52;;;;;;;14.95;6.55;;;2.30;99.90;;;;;;5097428;28;20031;-81
2022/12/15 15:15:20;;;;;;;9.88;6.32;;;2.20;99.90;;;;;;5097660;28;20472;-80
2022/12/15 15:17:52;;;;;;;15.35;6.22;;;2.10;99.90;;;;;;5098589;28;20127;-81
2022/12/15 15:20:27;;;;;;;12.35;6.88;;;2.10;99.90;;;;;;5097700;28;20051;-83
2022/12/15 15:23:18;;;;;;;10.50;6.40;;;2.10;99.90;;;;;;5081297;28;20042;-82
2022/12/15 15:25:55;;;;;;;12.70;7.53;;;2.00;99.90;;;;;;5100408;28;20035;-83
2022/12/15 15:28:38;;;;;;;13.27;7.70;;;2.00;99.90;;;;;;5098724;28;20043;-82
2022/12/15 15:31:36;;;;;;;16.00;8.98;;;1.90;99.90;;;;;;5099328;28;20036;-82